sensor_id;sensor_type;location;lat;lon;timestamp;pressure;altitude;pressure_sealevel;temperature;humidity
3464;BME280;3551;41.578;24.706;2023-09-12T00:01:20;91449.19;;;12.31;60.79
3464;BME280;3551;41.578;24.706;2023-09-12T00:03:48;91465.19;;;12.38;61.04
3464;BME280;3551;41.578;24.706;2023-09-12T00:06:15;91431.34;;;12.07;61.30
3464;BME280;3551;41.578;24.706;2023-09-12T00:08:41;91461.47;;;12.25;61.45
3464;BME280;3551;41.578;24.706;2023-09-12T00:11:10;91434.72;;;12.14;61.26
3464;BME280;3551;41.578;24.706;2023-09-12T00:13:37;91458.84;;;12.18;62.12
3464;BME280;3551;41.578;24.706;2023-09-12T00:16:05;91453.50;;;12.14;62.15
3464;BME280;3551;41.578;24.706;2023-09-12T00:18:33;91448.09;;;12.18;62.08
3464;BME280;3551;41.578;24.706;2023-09-12T00:21:02;91461.84;;;12.23;62.97
3464;BME280;3551;41.578;24.706;2023-09-12T00:23:29;91442.59;;;11.84;63.16
3464;BME280;3551;41.578;24.706;2023-09-12T00:25:57;91455.09;;;12.05;63.68
3464;BME280;3551;41.578;24.706;2023-09-12T00:28:23;91446.75;;;11.96;63.62
3464;BME280;3551;41.578;24.706;2023-09-12T00:30:51;91451.06;;;11.79;64.16
3464;BME280;3551;41.578;24.706;2023-09-12T00:33:18;91447.78;;;12.12;64.42
3464;BME280;3551;41.578;24.706;2023-09-12T00:35:45;91456.88;;;12.25;63.82
3464;BME280;3551;41.578;24.706;2023-09-12T00:38:13;91451.91;;;12.24;64.29
3464;BME280;3551;41.578;24.706;2023-09-12T00:40:40;91455.81;;;12.12;64.58
3464;BME280;3551;41.578;24.706;2023-09-12T00:43:07;91431.78;;;11.98;64.02
3464;BME280;3551;41.578;24.706;2023-09-12T00:45:34;91458.50;;;12.09;64.17
3464;BME280;3551;41.578;24.706;2023-09-12T00:48:03;91454.81;;;11.89;64.60
3464;BME280;3551;41.578;24.706;2023-09-12T00:50:31;91417.03;;;11.65;64.96
3464;BME280;3551;41.578;24.706;2023-09-12T00:52:59;91456.63;;;12.06;65.03
3464;BME280;3551;41.578;24.706;2023-09-12T00:55:29;91423.53;;;11.71;64.60
3464;BME280;3551;41.578;24.706;2023-09-12T00:57:58;91447.63;;;11.78;65.44
3464;BME280;3551;41.578;24.706;2023-09-12T01:00:25;91439.50;;;11.85;64.93
3464;BME280;3551;41.578;24.706;2023-09-12T01:02:53;91464.81;;;11.81;65.90
3464;BME280;3551;41.578;24.706;2023-09-12T01:05:22;91463.69;;;11.82;65.75
3464;BME280;3551;41.578;24.706;2023-09-12T01:07:50;91454.13;;;11.77;65.81
3464;BME280;3551;41.578;24.706;2023-09-12T01:10:17;91437.38;;;11.52;66.07
3464;BME280;3551;41.578;24.706;2023-09-12T01:12:46;91471.38;;;11.59;66.72
3464;BME280;3551;41.578;24.706;2023-09-12T01:15:12;91469.50;;;11.56;67.49
3464;BME280;3551;41.578;24.706;2023-09-12T01:17:41;91485.53;;;11.63;67.20
3464;BME280;3551;41.578;24.706;2023-09-12T01:20:11;91452.75;;;11.38;68.21
3464;BME280;3551;41.578;24.706;2023-09-12T01:22:55;91467.53;;;11.74;67.38
3464;BME280;3551;41.578;24.706;2023-09-12T01:26:13;91480.53;;;11.68;67.81
3464;BME280;3551;41.578;24.706;2023-09-12T01:28:47;91470.31;;;11.49;68.06
3464;BME280;3551;41.578;24.706;2023-09-12T01:31:15;91452.06;;;11.12;68.46
3464;BME280;3551;41.578;24.706;2023-09-12T01:33:42;91479.06;;;11.53;68.18
3464;BME280;3551;41.578;24.706;2023-09-12T01:36:10;91488.97;;;11.67;68.10
3464;BME280;3551;41.578;24.706;2023-09-12T01:38:37;91474.88;;;11.52;69.07
3464;BME280;3551;41.578;24.706;2023-09-12T01:41:04;91490.13;;;11.73;68.02
3464;BME280;3551;41.578;24.706;2023-09-12T01:43:32;91461.84;;;11.54;67.31
3464;BME280;3551;41.578;24.706;2023-09-12T01:46:04;91480.94;;;11.63;67.96
3464;BME280;3551;41.578;24.706;2023-09-12T01:48:33;91478.25;;;11.74;67.40
3464;BME280;3551;41.578;24.706;2023-09-12T01:51:01;91471.06;;;11.50;67.90
3464;BME280;3551;41.578;24.706;2023-09-12T01:53:29;91469.88;;;11.61;67.71
3464;BME280;3551;41.578;24.706;2023-09-12T01:55:56;91488.56;;;11.68;68.05
3464;BME280;3551;41.578;24.706;2023-09-12T01:58:25;91481.38;;;11.55;68.85
3464;BME280;3551;41.578;24.706;2023-09-12T02:00:52;91472.28;;;11.38;68.76
3464;BME280;3551;41.578;24.706;2023-09-12T02:03:20;91487.97;;;11.29;69.29
3464;BME280;3551;41.578;24.706;2023-09-12T02:05:48;91473.06;;;11.21;69.68
3464;BME280;3551;41.578;24.706;2023-09-12T02:08:15;91475.31;;;11.40;68.86
3464;BME280;3551;41.578;24.706;2023-09-12T02:10:42;91486.38;;;11.46;68.13
3464;BME280;3551;41.578;24.706;2023-09-12T02:13:08;91492.88;;;11.45;68.40
3464;BME280;3551;41.578;24.706;2023-09-12T02:15:35;91497.09;;;11.46;68.83
3464;BME280;3551;41.578;24.706;2023-09-12T02:18:03;91498.28;;;11.41;69.14
3464;BME280;3551;41.578;24.706;2023-09-12T02:20:32;91492.13;;;11.44;69.07
3464;BME280;3551;41.578;24.706;2023-09-12T02:22:58;91492.53;;;11.36;69.14
3464;BME280;3551;41.578;24.706;2023-09-12T02:25:25;91494.47;;;11.24;69.43
3464;BME280;3551;41.578;24.706;2023-09-12T02:27:52;91491.84;;;11.14;70.26
3464;BME280;3551;41.578;24.706;2023-09-12T02:30:19;91475.06;;;10.99;70.16
3464;BME280;3551;41.578;24.706;2023-09-12T02:32:46;91503.28;;;11.25;70.16
3464;BME280;3551;41.578;24.706;2023-09-12T02:35:13;91480.38;;;11.20;70.20
3464;BME280;3551;41.578;24.706;2023-09-12T02:37:41;91491.00;;;11.38;70.54
3464;BME280;3551;41.578;24.706;2023-09-12T02:40:08;91448.72;;;10.84;71.74
3464;BME280;3551;41.578;24.706;2023-09-12T02:42:37;91482.34;;;10.88;72.05
3464;BME280;3551;41.578;24.706;2023-09-12T02:45:05;91494.13;;;11.19;71.99
3464;BME280;3551;41.578;24.706;2023-09-12T02:47:33;91496.75;;;11.37;71.09
3464;BME280;3551;41.578;24.706;2023-09-12T02:49:59;91491.84;;;11.17;71.75
3464;BME280;3551;41.578;24.706;2023-09-12T02:52:26;91489.53;;;11.16;71.50
3464;BME280;3551;41.578;24.706;2023-09-12T02:54:54;91495.66;;;11.20;71.79
3464;BME280;3551;41.578;24.706;2023-09-12T02:57:21;91497.56;;;11.16;71.56
3464;BME280;3551;41.578;24.706;2023-09-12T02:59:48;91462.03;;;11.08;71.08
3464;BME280;3551;41.578;24.706;2023-09-12T03:02:15;91504.41;;;11.35;70.11
3464;BME280;3551;41.578;24.706;2023-09-12T03:04:42;91484.59;;;11.04;71.13
3464;BME280;3551;41.578;24.706;2023-09-12T03:07:09;91452.88;;;10.95;71.65
3464;BME280;3551;41.578;24.706;2023-09-12T03:09:36;91485.03;;;10.78;72.27
3464;BME280;3551;41.578;24.706;2023-09-12T03:12:06;91499.09;;;11.13;71.67
3464;BME280;3551;41.578;24.706;2023-09-12T03:14:33;91494.88;;;11.23;71.52
3464;BME280;3551;41.578;24.706;2023-09-12T03:17:00;91500.19;;;11.37;70.68
3464;BME280;3551;41.578;24.706;2023-09-12T03:19:26;91486.53;;;11.00;71.67
3464;BME280;3551;41.578;24.706;2023-09-12T03:21:54;91489.16;;;11.10;71.63
3464;BME280;3551;41.578;24.706;2023-09-12T03:24:21;91489.56;;;11.05;71.24
3464;BME280;3551;41.578;24.706;2023-09-12T03:26:50;91466.66;;;10.83;72.54
3464;BME280;3551;41.578;24.706;2023-09-12T03:29:18;91494.19;;;10.91;72.55
3464;BME280;3551;41.578;24.706;2023-09-12T03:31:45;91497.19;;;11.14;72.11
3464;BME280;3551;41.578;24.706;2023-09-12T03:34:12;91501.38;;;11.15;72.18
3464;BME280;3551;41.578;24.706;2023-09-12T03:36:39;91504.06;;;11.15;72.17
3464;BME280;3551;41.578;24.706;2023-09-12T03:39:06;91495.69;;;11.02;72.56
3464;BME280;3551;41.578;24.706;2023-09-12T03:41:34;91485.75;;;10.99;72.15
3464;BME280;3551;41.578;24.706;2023-09-12T03:44:01;91487.31;;;10.86;73.16
3464;BME280;3551;41.578;24.706;2023-09-12T03:46:29;91460.56;;;10.86;72.75
3464;BME280;3551;41.578;24.706;2023-09-12T03:48:56;91494.16;;;11.12;72.62
3464;BME280;3551;41.578;24.706;2023-09-12T03:51:23;91507.13;;;11.06;73.27
3464;BME280;3551;41.578;24.706;2023-09-12T03:53:50;91515.19;;;10.92;73.66
3464;BME280;3551;41.578;24.706;2023-09-12T03:56:17;91509.47;;;10.90;73.87
3464;BME280;3551;41.578;24.706;2023-09-12T03:58:45;91500.28;;;11.02;73.26
3464;BME280;3551;41.578;24.706;2023-09-12T04:01:12;91515.19;;;10.99;73.75
3464;BME280;3551;41.578;24.706;2023-09-12T04:03:40;91507.53;;;10.98;74.06
3464;BME280;3551;41.578;24.706;2023-09-12T04:06:07;91484.25;;;10.84;73.63
3464;BME280;3551;41.578;24.706;2023-09-12T04:08:35;91485.41;;;10.65;74.63
3464;BME280;3551;41.578;24.706;2023-09-12T04:11:02;91514.44;;;11.02;74.14
3464;BME280;3551;41.578;24.706;2023-09-12T04:13:29;91501.44;;;10.97;73.58
3464;BME280;3551;41.578;24.706;2023-09-12T04:15:56;91509.84;;;11.03;73.99
3464;BME280;3551;41.578;24.706;2023-09-12T04:18:23;91494.94;;;11.05;73.59
3464;BME280;3551;41.578;24.706;2023-09-12T04:24:31;91525.09;;;11.23;73.67
3464;BME280;3551;41.578;24.706;2023-09-12T04:26:58;91519.75;;;11.13;74.14
3464;BME280;3551;41.578;24.706;2023-09-12T04:29:25;91523.19;;;11.20;74.18
3464;BME280;3551;41.578;24.706;2023-09-12T04:31:53;91531.63;;;11.08;74.39
3464;BME280;3551;41.578;24.706;2023-09-12T04:34:24;91513.28;;;11.00;75.31
3464;BME280;3551;41.578;24.706;2023-09-12T04:36:52;91516.34;;;11.05;74.65
3464;BME280;3551;41.578;24.706;2023-09-12T04:39:19;91519.00;;;11.09;74.53
3464;BME280;3551;41.578;24.706;2023-09-12T04:41:47;91508.31;;;11.05;75.21
3464;BME280;3551;41.578;24.706;2023-09-12T04:44:14;91521.25;;;11.32;74.96
3464;BME280;3551;41.578;24.706;2023-09-12T04:46:41;91529.59;;;11.55;73.16
3464;BME280;3551;41.578;24.706;2023-09-12T04:49:08;91506.69;;;11.36;73.41
3464;BME280;3551;41.578;24.706;2023-09-12T04:51:34;91513.09;;;11.63;73.43
3464;BME280;3551;41.578;24.706;2023-09-12T04:54:01;91504.97;;;12.47;71.32
3464;BME280;3551;41.578;24.706;2023-09-12T04:56:28;91521.84;;;13.39;66.47
3464;BME280;3551;41.578;24.706;2023-09-12T04:58:57;91531.69;;;14.14;63.43
3464;BME280;3551;41.578;24.706;2023-09-12T05:01:24;91525.00;;;14.82;61.19
3464;BME280;3551;41.578;24.706;2023-09-12T05:03:51;91523.06;;;15.72;58.12
3464;BME280;3551;41.578;24.706;2023-09-12T05:06:18;91512.53;;;16.17;55.86
3464;BME280;3551;41.578;24.706;2023-09-12T05:08:45;91515.78;;;16.80;54.18
3464;BME280;3551;41.578;24.706;2023-09-12T05:11:12;91503.94;;;17.22;52.86
3464;BME280;3551;41.578;24.706;2023-09-12T05:13:39;91498.91;;;17.53;51.96
3464;BME280;3551;41.578;24.706;2023-09-12T05:16:08;91516.25;;;17.84;50.98
3464;BME280;3551;41.578;24.706;2023-09-12T05:18:34;91493.50;;;17.53;50.50
3464;BME280;3551;41.578;24.706;2023-09-12T05:21:01;91506.97;;;17.85;50.88
3464;BME280;3551;41.578;24.706;2023-09-12T05:23:28;91498.75;;;17.89;49.92
3464;BME280;3551;41.578;24.706;2023-09-12T05:25:55;91517.00;;;18.14;49.79
3464;BME280;3551;41.578;24.706;2023-09-12T05:28:22;91484.59;;;17.69;50.33
3464;BME280;3551;41.578;24.706;2023-09-12T05:30:49;91514.78;;;17.96;49.71
3464;BME280;3551;41.578;24.706;2023-09-12T05:33:18;91518.09;;;18.16;49.66
3464;BME280;3551;41.578;24.706;2023-09-12T05:35:45;91521.72;;;17.97;52.07
3464;BME280;3551;41.578;24.706;2023-09-12T05:38:12;91517.34;;;18.28;50.93
3464;BME280;3551;41.578;24.706;2023-09-12T05:40:39;91520.38;;;18.59;49.50
3464;BME280;3551;41.578;24.706;2023-09-12T05:43:05;91526.03;;;18.36;49.87
3464;BME280;3551;41.578;24.706;2023-09-12T05:45:33;91522.22;;;18.33;49.86
3464;BME280;3551;41.578;24.706;2023-09-12T05:48:02;91523.28;;;18.52;47.64
3464;BME280;3551;41.578;24.706;2023-09-12T05:50:31;91525.66;;;18.75;48.95
3464;BME280;3551;41.578;24.706;2023-09-12T05:52:58;91525.44;;;18.95;47.59
3464;BME280;3551;41.578;24.706;2023-09-12T05:55:26;91490.00;;;18.89;48.44
3464;BME280;3551;41.578;24.706;2023-09-12T05:57:53;91500.06;;;18.89;47.82
3464;BME280;3551;41.578;24.706;2023-09-12T06:00:20;91490.00;;;18.77;48.97
3464;BME280;3551;41.578;24.706;2023-09-12T06:02:48;91515.75;;;19.32;48.12
3464;BME280;3551;41.578;24.706;2023-09-12T06:05:15;91517.59;;;20.03;47.35
3464;BME280;3551;41.578;24.706;2023-09-12T06:07:43;91520.16;;;20.19;46.33
3464;BME280;3551;41.578;24.706;2023-09-12T06:10:12;91512.44;;;20.18;46.38
3464;BME280;3551;41.578;24.706;2023-09-12T06:12:39;91513.16;;;20.31;46.72
3464;BME280;3551;41.578;24.706;2023-09-12T06:15:06;91515.78;;;20.44;46.06
3464;BME280;3551;41.578;24.706;2023-09-12T06:17:33;91517.72;;;20.34;46.68
3464;BME280;3551;41.578;24.706;2023-09-12T06:20:00;91521.22;;;20.22;44.87
3464;BME280;3551;41.578;24.706;2023-09-12T06:22:29;91540.69;;;20.42;45.92
3464;BME280;3551;41.578;24.706;2023-09-12T06:24:57;91533.44;;;21.01;45.09
3464;BME280;3551;41.578;24.706;2023-09-12T06:27:24;91528.72;;;20.92;45.06
3464;BME280;3551;41.578;24.706;2023-09-12T06:29:51;91535.34;;;20.91;45.49
3464;BME280;3551;41.578;24.706;2023-09-12T06:32:18;91509.34;;;20.90;44.55
3464;BME280;3551;41.578;24.706;2023-09-12T06:34:45;91522.00;;;20.84;44.22
3464;BME280;3551;41.578;24.706;2023-09-12T06:37:13;91537.88;;;21.16;43.97
3464;BME280;3551;41.578;24.706;2023-09-12T06:39:40;91543.91;;;21.11;44.05
3464;BME280;3551;41.578;24.706;2023-09-12T06:42:08;91539.34;;;21.39;43.77
3464;BME280;3551;41.578;24.706;2023-09-12T06:44:35;91531.50;;;21.59;42.75
3464;BME280;3551;41.578;24.706;2023-09-12T06:47:04;91525.25;;;21.31;43.53
3464;BME280;3551;41.578;24.706;2023-09-12T06:49:31;91540.78;;;21.22;43.40
3464;BME280;3551;41.578;24.706;2023-09-12T06:51:58;91528.09;;;20.88;44.33
3464;BME280;3551;41.578;24.706;2023-09-12T06:54:25;91507.69;;;20.53;43.88
3464;BME280;3551;41.578;24.706;2023-09-12T06:56:52;91524.34;;;20.64;45.10
3464;BME280;3551;41.578;24.706;2023-09-12T06:59:20;91529.66;;;20.67;44.49
3464;BME280;3551;41.578;24.706;2023-09-12T07:01:47;91538.91;;;20.48;45.24
3464;BME280;3551;41.578;24.706;2023-09-12T07:04:14;91520.38;;;20.56;45.17
3464;BME280;3551;41.578;24.706;2023-09-12T07:06:42;91503.84;;;20.41;45.93
3464;BME280;3551;41.578;24.706;2023-09-12T07:09:09;91510.44;;;20.62;45.50
3464;BME280;3551;41.578;24.706;2023-09-12T07:11:39;91542.31;;;20.92;45.48
3464;BME280;3551;41.578;24.706;2023-09-12T07:14:06;91505.94;;;20.68;45.76
3464;BME280;3551;41.578;24.706;2023-09-12T07:16:36;91546.81;;;20.86;45.61
3464;BME280;3551;41.578;24.706;2023-09-12T07:19:04;91527.03;;;20.86;45.35
3464;BME280;3551;41.578;24.706;2023-09-12T07:21:34;91535.50;;;21.18;44.69
3464;BME280;3551;41.578;24.706;2023-09-12T07:24:07;91530.63;;;21.13;44.61
3464;BME280;3551;41.578;24.706;2023-09-12T07:26:34;91522.50;;;21.22;44.26
3464;BME280;3551;41.578;24.706;2023-09-12T07:29:01;91536.59;;;21.30;44.55
3464;BME280;3551;41.578;24.706;2023-09-12T07:31:30;91526.66;;;21.45;43.47
3464;BME280;3551;41.578;24.706;2023-09-12T07:33:59;91520.59;;;21.41;44.19
3464;BME280;3551;41.578;24.706;2023-09-12T07:36:26;91537.69;;;21.51;44.41
3464;BME280;3551;41.578;24.706;2023-09-12T07:38:53;91528.78;;;21.50;44.28
3464;BME280;3551;41.578;24.706;2023-09-12T07:41:20;91537.41;;;21.67;44.55
3464;BME280;3551;41.578;24.706;2023-09-12T07:43:47;91497.31;;;21.49;44.74
3464;BME280;3551;41.578;24.706;2023-09-12T07:46:20;91534.22;;;21.50;45.01
3464;BME280;3551;41.578;24.706;2023-09-12T07:48:47;91548.25;;;21.49;45.11
3464;BME280;3551;41.578;24.706;2023-09-12T07:51:15;91526.22;;;21.56;45.12
3464;BME280;3551;41.578;24.706;2023-09-12T07:53:43;91524.53;;;21.58;45.03
3464;BME280;3551;41.578;24.706;2023-09-12T07:56:13;91532.63;;;21.89;45.23
3464;BME280;3551;41.578;24.706;2023-09-12T07:58:41;91526.41;;;21.79;44.84
3464;BME280;3551;41.578;24.706;2023-09-12T08:01:10;91540.66;;;22.02;44.75
3464;BME280;3551;41.578;24.706;2023-09-12T08:03:37;91545.81;;;22.09;44.32
3464;BME280;3551;41.578;24.706;2023-09-12T08:06:05;91535.97;;;22.20;44.11
3464;BME280;3551;41.578;24.706;2023-09-12T08:08:34;91538.53;;;22.24;43.33
3464;BME280;3551;41.578;24.706;2023-09-12T08:11:01;91540.94;;;22.13;43.47
3464;BME280;3551;41.578;24.706;2023-09-12T08:13:29;91530.38;;;21.97;43.55
3464;BME280;3551;41.578;24.706;2023-09-12T08:15:57;91542.47;;;22.32;43.72
3464;BME280;3551;41.578;24.706;2023-09-12T08:18:46;91514.47;;;22.22;42.97
3464;BME280;3551;41.578;24.706;2023-09-12T08:21:37;91536.25;;;22.40;42.79
3464;BME280;3551;41.578;24.706;2023-09-12T08:24:05;91524.28;;;22.38;42.67
3464;BME280;3551;41.578;24.706;2023-09-12T08:26:32;91535.03;;;22.41;42.18
3464;BME280;3551;41.578;24.706;2023-09-12T08:28:59;91536.97;;;22.59;42.21
3464;BME280;3551;41.578;24.706;2023-09-12T08:31:27;91521.72;;;22.43;42.36
3464;BME280;3551;41.578;24.706;2023-09-12T08:33:53;91525.50;;;22.37;42.78
3464;BME280;3551;41.578;24.706;2023-09-12T08:36:20;91500.69;;;22.35;42.06
3464;BME280;3551;41.578;24.706;2023-09-12T08:38:47;91539.09;;;22.73;43.30
3464;BME280;3551;41.578;24.706;2023-09-12T08:41:16;91526.16;;;22.92;42.18
3464;BME280;3551;41.578;24.706;2023-09-12T08:43:44;91525.84;;;22.99;42.26
3464;BME280;3551;41.578;24.706;2023-09-12T08:46:15;91534.91;;;23.05;42.00
3464;BME280;3551;41.578;24.706;2023-09-12T08:48:46;91526.56;;;23.09;41.57
3464;BME280;3551;41.578;24.706;2023-09-12T08:51:13;91519.63;;;22.98;41.97
3464;BME280;3551;41.578;24.706;2023-09-12T08:53:40;91513.53;;;23.04;42.47
3464;BME280;3551;41.578;24.706;2023-09-12T08:56:08;91513.94;;;23.20;42.70
3464;BME280;3551;41.578;24.706;2023-09-12T08:58:38;91512.50;;;23.34;42.57
3464;BME280;3551;41.578;24.706;2023-09-12T09:01:06;91506.84;;;23.14;42.84
3464;BME280;3551;41.578;24.706;2023-09-12T09:03:36;91501.34;;;23.23;43.27
3464;BME280;3551;41.578;24.706;2023-09-12T09:06:04;91524.34;;;23.31;42.90
3464;BME280;3551;41.578;24.706;2023-09-12T09:08:32;91528.50;;;23.17;43.49
3464;BME280;3551;41.578;24.706;2023-09-12T09:11:01;91517.19;;;23.42;42.59
3464;BME280;3551;41.578;24.706;2023-09-12T09:13:29;91486.41;;;23.00;43.11
3464;BME280;3551;41.578;24.706;2023-09-12T09:16:11;91519.44;;;23.44;42.97
3464;BME280;3551;41.578;24.706;2023-09-12T09:18:55;91490.03;;;23.39;42.68
3464;BME280;3551;41.578;24.706;2023-09-12T09:21:24;91525.03;;;23.49;42.76
3464;BME280;3551;41.578;24.706;2023-09-12T09:23:58;91494.59;;;23.00;43.54
3464;BME280;3551;41.578;24.706;2023-09-12T09:26:40;91499.53;;;23.20;43.65
3464;BME280;3551;41.578;24.706;2023-09-12T09:29:09;91521.34;;;23.52;43.69
3464;BME280;3551;41.578;24.706;2023-09-12T09:31:40;91532.22;;;23.62;43.34
3464;BME280;3551;41.578;24.706;2023-09-12T09:34:10;91519.44;;;23.44;43.04
3464;BME280;3551;41.578;24.706;2023-09-12T09:36:41;91508.75;;;23.22;44.05
3464;BME280;3551;41.578;24.706;2023-09-12T09:39:08;91522.31;;;23.49;43.39
3464;BME280;3551;41.578;24.706;2023-09-12T09:41:36;91480.66;;;23.31;43.69
3464;BME280;3551;41.578;24.706;2023-09-12T09:44:04;91514.81;;;23.83;43.60
3464;BME280;3551;41.578;24.706;2023-09-12T09:46:31;91514.16;;;23.88;43.12
3464;BME280;3551;41.578;24.706;2023-09-12T09:49:00;91514.53;;;23.81;42.88
3464;BME280;3551;41.578;24.706;2023-09-12T09:51:29;91512.78;;;23.92;43.63
3464;BME280;3551;41.578;24.706;2023-09-12T09:53:57;91492.69;;;23.57;42.61
3464;BME280;3551;41.578;24.706;2023-09-12T09:56:26;91483.41;;;23.31;43.04
3464;BME280;3551;41.578;24.706;2023-09-12T09:58:54;91514.53;;;23.15;43.46
3464;BME280;3551;41.578;24.706;2023-09-12T10:01:23;91535.19;;;23.07;44.30
3464;BME280;3551;41.578;24.706;2023-09-12T10:03:51;91483.84;;;23.06;43.79
3464;BME280;3551;41.578;24.706;2023-09-12T10:06:19;91472.59;;;23.36;43.73
3464;BME280;3551;41.578;24.706;2023-09-12T10:08:50;91510.22;;;23.65;43.39
3464;BME280;3551;41.578;24.706;2023-09-12T10:11:19;91481.16;;;23.53;42.60
3464;BME280;3551;41.578;24.706;2023-09-12T10:13:49;91500.38;;;23.82;43.22
3464;BME280;3551;41.578;24.706;2023-09-12T10:16:23;91505.63;;;23.95;42.50
3464;BME280;3551;41.578;24.706;2023-09-12T10:18:58;91509.44;;;24.12;42.82
3464;BME280;3551;41.578;24.706;2023-09-12T10:21:30;91492.59;;;23.90;42.09
3464;BME280;3551;41.578;24.706;2023-09-12T10:23:58;91504.50;;;24.25;42.59
3464;BME280;3551;41.578;24.706;2023-09-12T10:26:26;91497.44;;;24.09;43.21
3464;BME280;3551;41.578;24.706;2023-09-12T10:28:54;91490.91;;;23.92;42.34
3464;BME280;3551;41.578;24.706;2023-09-12T10:31:22;91490.44;;;23.94;42.26
3464;BME280;3551;41.578;24.706;2023-09-12T10:33:51;91473.06;;;23.82;42.22
3464;BME280;3551;41.578;24.706;2023-09-12T10:36:19;91489.00;;;23.84;42.64
3464;BME280;3551;41.578;24.706;2023-09-12T10:38:49;91501.78;;;24.01;42.30
3464;BME280;3551;41.578;24.706;2023-09-12T10:41:19;91500.16;;;24.19;42.45
3464;BME280;3551;41.578;24.706;2023-09-12T10:43:48;91498.94;;;24.34;41.99
3464;BME280;3551;41.578;24.706;2023-09-12T10:46:18;91480.91;;;23.89;41.79
3464;BME280;3551;41.578;24.706;2023-09-12T10:48:45;91495.63;;;24.16;42.41
3464;BME280;3551;41.578;24.706;2023-09-12T10:51:12;91494.13;;;24.29;42.15
3464;BME280;3551;41.578;24.706;2023-09-12T10:53:45;91483.69;;;24.42;41.67
3464;BME280;3551;41.578;24.706;2023-09-12T10:56:17;91489.78;;;24.37;41.12
3464;BME280;3551;41.578;24.706;2023-09-12T10:59:10;91486.41;;;24.42;41.05
3464;BME280;3551;41.578;24.706;2023-09-12T11:01:38;91484.53;;;23.95;41.40
3464;BME280;3551;41.578;24.706;2023-09-12T11:04:33;91472.84;;;24.09;42.06
3464;BME280;3551;41.578;24.706;2023-09-12T11:07:01;91477.94;;;24.02;41.21
3464;BME280;3551;41.578;24.706;2023-09-12T11:09:28;91485.47;;;23.69;42.05
3464;BME280;3551;41.578;24.706;2023-09-12T11:11:58;91459.09;;;23.42;42.21
3464;BME280;3551;41.578;24.706;2023-09-12T11:14:25;91478.59;;;23.73;42.61
3464;BME280;3551;41.578;24.706;2023-09-12T11:17:22;91476.97;;;23.90;42.21
3464;BME280;3551;41.578;24.706;2023-09-12T11:19:51;91472.41;;;24.11;41.97
3464;BME280;3551;41.578;24.706;2023-09-12T11:22:24;91475.84;;;24.35;41.71
3464;BME280;3551;41.578;24.706;2023-09-12T11:24:51;91437.66;;;24.26;41.76
3464;BME280;3551;41.578;24.706;2023-09-12T11:27:20;91433.66;;;23.98;40.82
3464;BME280;3551;41.578;24.706;2023-09-12T11:29:47;91472.34;;;24.20;41.63
3464;BME280;3551;41.578;24.706;2023-09-12T11:32:26;91458.75;;;24.11;41.11
3464;BME280;3551;41.578;24.706;2023-09-12T11:34:53;91461.59;;;23.78;41.80
3464;BME280;3551;41.578;24.706;2023-09-12T11:37:24;91471.09;;;23.83;41.88
3464;BME280;3551;41.578;24.706;2023-09-12T11:39:52;91440.56;;;23.70;41.62
3464;BME280;3551;41.578;24.706;2023-09-12T11:42:20;91467.41;;;24.09;41.48
3464;BME280;3551;41.578;24.706;2023-09-12T11:44:51;91462.25;;;24.26;40.96
3464;BME280;3551;41.578;24.706;2023-09-12T11:47:18;91439.44;;;24.15;41.81
3464;BME280;3551;41.578;24.706;2023-09-12T11:49:46;91430.47;;;24.14;40.63
3464;BME280;3551;41.578;24.706;2023-09-12T11:52:14;91437.13;;;23.98;40.79
3464;BME280;3551;41.578;24.706;2023-09-12T11:54:42;91454.63;;;24.16;41.09
3464;BME280;3551;41.578;24.706;2023-09-12T11:57:11;91450.47;;;24.35;40.48
3464;BME280;3551;41.578;24.706;2023-09-12T11:59:41;91446.97;;;24.34;41.42
3464;BME280;3551;41.578;24.706;2023-09-12T12:02:11;91433.28;;;24.05;41.02
3464;BME280;3551;41.578;24.706;2023-09-12T12:04:38;91426.38;;;23.95;41.38
3464;BME280;3551;41.578;24.706;2023-09-12T12:07:05;91445.22;;;24.31;41.73
3464;BME280;3551;41.578;24.706;2023-09-12T12:09:32;91440.47;;;24.17;41.24
3464;BME280;3551;41.578;24.706;2023-09-12T12:12:04;91437.75;;;24.17;41.12
3464;BME280;3551;41.578;24.706;2023-09-12T12:14:33;91421.94;;;23.83;41.69
3464;BME280;3551;41.578;24.706;2023-09-12T12:17:07;91397.34;;;23.83;40.91
3464;BME280;3551;41.578;24.706;2023-09-12T12:19:35;91436.06;;;24.34;41.04
3464;BME280;3551;41.578;24.706;2023-09-12T12:22:03;91421.50;;;23.99;40.94
3464;BME280;3551;41.578;24.706;2023-09-12T12:24:40;91427.34;;;24.06;41.72
3464;BME280;3551;41.578;24.706;2023-09-12T12:27:07;91432.03;;;23.91;41.97
3464;BME280;3551;41.578;24.706;2023-09-12T12:29:37;91427.56;;;24.18;41.77
3464;BME280;3551;41.578;24.706;2023-09-12T12:32:07;91430.69;;;24.11;41.14
3464;BME280;3551;41.578;24.706;2023-09-12T12:34:35;91428.56;;;24.05;41.40
3464;BME280;3551;41.578;24.706;2023-09-12T12:37:05;91429.13;;;24.09;41.86
3464;BME280;3551;41.578;24.706;2023-09-12T12:39:32;91423.56;;;23.89;41.37
3464;BME280;3551;41.578;24.706;2023-09-12T12:42:02;91421.25;;;23.73;41.49
3464;BME280;3551;41.578;24.706;2023-09-12T12:44:36;91431.22;;;23.76;41.18
3464;BME280;3551;41.578;24.706;2023-09-12T12:47:08;91433.22;;;23.76;41.22
3464;BME280;3551;41.578;24.706;2023-09-12T12:49:37;91431.34;;;23.82;41.54
3464;BME280;3551;41.578;24.706;2023-09-12T12:52:05;91426.00;;;23.87;41.87
3464;BME280;3551;41.578;24.706;2023-09-12T12:54:32;91419.50;;;23.99;41.71
3464;BME280;3551;41.578;24.706;2023-09-12T12:57:02;91430.25;;;24.03;41.82
3464;BME280;3551;41.578;24.706;2023-09-12T12:59:29;91424.47;;;23.72;41.46
3464;BME280;3551;41.578;24.706;2023-09-12T13:02:00;91410.03;;;23.71;41.70
3464;BME280;3551;41.578;24.706;2023-09-12T13:04:35;91431.16;;;23.85;41.40
3464;BME280;3551;41.578;24.706;2023-09-12T13:07:02;91434.56;;;23.80;41.42
3464;BME280;3551;41.578;24.706;2023-09-12T13:09:29;91450.25;;;23.71;41.39
3464;BME280;3551;41.578;24.706;2023-09-12T13:11:56;91431.72;;;23.75;41.54
3464;BME280;3551;41.578;24.706;2023-09-12T13:14:23;91436.00;;;23.90;41.15
3464;BME280;3551;41.578;24.706;2023-09-12T13:16:56;91427.50;;;23.88;42.06
3464;BME280;3551;41.578;24.706;2023-09-12T13:19:23;91418.75;;;23.84;42.44
3464;BME280;3551;41.578;24.706;2023-09-12T13:21:51;91415.78;;;23.73;41.54